Time,TemperatureF,DewpointF,PressureIn,WindDirection,WindDirectionDegrees,WindSpeedMPH,WindSpeedGustMPH,Humidity,HourlyPrecipIn,Conditions,Clouds,dailyrainin,SoftwareType,DateUTC
2013-11-28 00:04:00,47.0,31.2,29.99,NE,45,1.0,2.0,54,0.00,,SKC,0.00,VWS V14.01,2013-11-28 07:04:00,
2013-11-28 00:09:00,47.0,30.8,29.99,East,90,2.0,2.0,53,0.00,,SKC,0.00,VWS V14.01,2013-11-28 07:09:00,
2013-11-28 00:14:00,47.0,30.8,29.99,NE,45,1.0,2.0,53,0.00,,SKC,0.00,VWS V14.01,2013-11-28 07:14:00,
2013-11-28 00:20:00,47.0,31.2,29.99,ENE,68,1.0,1.0,54,0.00,,SKC,0.00,VWS V14.01,2013-11-28 07:20:00,
2013-11-28 00:25:00,47.0,30.3,29.99,ENE,68,1.0,2.0,52,0.00,,SKC,0.00,VWS V14.01,2013-11-28 07:25:00,
2013-11-28 00:30:00,47.0,29.8,29.99,ENE,68,3.0,3.0,51,0.00,,SKC,0.00,VWS V14.01,2013-11-28 07:30:00,
2013-11-28 00:35:00,47.0,30.3,29.99,East,90,1.0,1.0,52,0.00,,SKC,0.00,VWS V14.01,2013-11-28 07:35:00,
2013-11-28 00:40:00,47.0,29.8,29.99,NNE,22,1.0,3.0,51,0.00,,SKC,0.00,VWS V14.01,2013-11-28 07:40:00,
2013-11-28 00:45:00,47.0,29.8,29.98,NE,45,2.0,3.0,51,0.00,,SKC,0.00,VWS V14.01,2013-11-28 07:45:00,
2013-11-28 00:51:00,48.0,30.3,29.98,NE,45,3.0,3.0,50,0.00,,SKC,0.00,VWS V14.01,2013-11-28 07:51:00,
2013-11-28 00:57:00,47.0,29.8,29.97,NE,45,2.0,3.0,51,0.00,,SKC,0.00,VWS V14.01,2013-11-28 07:57:00,
2013-11-28 01:02:00,48.0,30.3,29.97,ENE,68,3.0,5.0,50,0.00,,SKC,0.00,VWS V14.01,2013-11-28 08:02:00,
2013-11-28 01:07:00,48.0,29.8,29.97,North,0,5.0,5.0,49,0.00,,SKC,0.00,VWS V14.01,2013-11-28 08:07:00,
2013-11-28 01:12:00,48.0,29.8,29.97,NNE,22,4.0,5.0,49,0.00,,SKC,0.00,VWS V14.01,2013-11-28 08:12:00,
2013-11-28 01:17:00,48.0,29.8,29.97,NE,45,2.0,2.0,49,0.00,,SKC,0.00,VWS V14.01,2013-11-28 08:17:00,
2013-11-28 01:22:00,48.0,30.3,29.97,ENE,68,2.0,2.0,50,0.00,,SKC,0.00,VWS V14.01,2013-11-28 08:22:00,
2013-11-28 01:28:00,47.0,30.8,29.98,SSE,158,1.0,1.0,53,0.00,,SKC,0.00,VWS V14.01,2013-11-28 08:28:00,
2013-11-28 01:33:00,46.0,31.6,29.98,East,90,3.0,3.0,57,0.00,,SKC,0.00,VWS V14.01,2013-11-28 08:33:00,
2013-11-28 01:38:00,45.0,31.5,29.98,ESE,112,0.0,1.0,59,0.00,,SKC,0.00,VWS V14.01,2013-11-28 08:38:00,
2013-11-28 01:43:00,44.0,31.8,29.98,NE,45,1.0,2.0,62,0.00,,SKC,0.00,VWS V14.01,2013-11-28 08:43:00,
2013-11-28 01:48:00,43.0,31.3,29.98,NE,45,2.0,2.0,63,0.00,,SKC,0.00,VWS V14.01,2013-11-28 08:48:00,
2013-11-28 01:54:00,43.0,32.1,29.98,ENE,68,2.0,4.0,65,0.00,,SKC,0.00,VWS V14.01,2013-11-28 08:54:00,
2013-11-28 02:00:00,43.0,31.7,29.98,NE,45,3.0,5.0,64,0.00,,SKC,0.00,VWS V14.01,2013-11-28 09:00:00,
2013-11-28 02:05:00,43.0,31.3,29.98,East,90,3.0,3.0,63,0.00,,SKC,0.00,VWS V14.01,2013-11-28 09:05:00,
2013-11-28 02:10:00,44.0,32.2,29.98,ESE,112,3.0,4.0,63,0.00,,SKC,0.00,VWS V14.01,2013-11-28 09:10:00,
2013-11-28 02:15:00,43.0,31.3,29.98,East,90,4.0,5.0,63,0.00,,SKC,0.00,VWS V14.01,2013-11-28 09:15:00,
2013-11-28 02:20:00,43.0,31.3,29.98,East,90,3.0,3.0,63,0.00,,SKC,0.00,VWS V14.01,2013-11-28 09:20:00,
2013-11-28 02:26:00,43.0,31.3,29.97,ENE,68,3.0,3.0,63,0.00,,SKC,0.00,VWS V14.01,2013-11-28 09:26:00,
2013-11-28 02:31:00,43.0,31.7,29.97,ENE,68,3.0,5.0,64,0.00,,SKC,0.00,VWS V14.01,2013-11-28 09:31:00,
2013-11-28 02:36:00,43.0,31.7,29.97,ENE,68,3.0,5.0,64,0.00,,SKC,0.00,VWS V14.01,2013-11-28 09:36:00,
2013-11-28 02:42:00,43.0,31.7,29.97,ESE,112,1.0,1.0,64,0.00,,SKC,0.00,VWS V14.01,2013-11-28 09:42:00,
2013-11-28 02:47:00,43.0,31.7,29.97,East,90,3.0,3.0,64,0.00,,SKC,0.00,VWS V14.01,2013-11-28 09:47:00,
2013-11-28 02:52:00,43.0,31.7,29.97,ESE,112,3.0,3.0,64,0.00,,SKC,0.00,VWS V14.01,2013-11-28 09:52:00,
2013-11-28 02:58:00,43.0,31.3,29.98,ESE,112,3.0,3.0,63,0.00,,SKC,0.00,VWS V14.01,2013-11-28 09:58:00,
2013-11-28 03:03:00,43.0,31.3,29.98,ENE,68,3.0,3.0,63,0.00,,SKC,0.00,VWS V14.01,2013-11-28 10:03:00,
2013-11-28 03:08:00,43.0,31.3,29.97,East,90,2.0,2.0,63,0.00,,SKC,0.00,VWS V14.01,2013-11-28 10:08:00,
2013-11-28 03:13:00,43.0,31.3,29.97,NE,45,2.0,3.0,63,0.00,,SKC,0.00,VWS V14.01,2013-11-28 10:13:00,
2013-11-28 03:18:00,43.0,31.3,29.97,ENE,68,1.0,2.0,63,0.00,,SKC,0.00,VWS V14.01,2013-11-28 10:18:00,
2013-11-28 03:24:00,43.0,31.7,29.97,NE,45,3.0,3.0,64,0.00,,SKC,0.00,VWS V14.01,2013-11-28 10:24:00,
2013-11-28 03:29:00,43.0,32.1,29.97,ENE,68,2.0,3.0,65,0.00,,SKC,0.00,VWS V14.01,2013-11-28 10:29:00,
2013-11-28 03:34:00,42.0,31.1,29.97,NE,45,2.0,3.0,65,0.00,,SKC,0.00,VWS V14.01,2013-11-28 10:34:00,
2013-11-28 03:39:00,42.0,31.1,29.97,ENE,68,1.0,2.0,65,0.00,,SKC,0.00,VWS V14.01,2013-11-28 10:39:00,
2013-11-28 03:44:00,42.0,30.7,29.98,ENE,68,1.0,2.0,64,0.00,,SKC,0.00,VWS V14.01,2013-11-28 10:44:00,
2013-11-28 03:50:00,43.0,31.7,29.98,East,90,3.0,3.0,64,0.00,,SKC,0.00,VWS V14.01,2013-11-28 10:50:00,
2013-11-28 03:56:00,43.0,31.7,29.98,East,90,3.0,4.0,64,0.00,,SKC,0.00,VWS V14.01,2013-11-28 10:56:00,
2013-11-28 04:02:00,43.0,31.3,29.97,ENE,68,3.0,3.0,63,0.00,,SKC,0.00,VWS V14.01,2013-11-28 11:02:00,
2013-11-28 04:07:00,43.0,31.3,29.97,ENE,68,1.0,3.0,63,0.00,,SKC,0.00,VWS V14.01,2013-11-28 11:07:00,
2013-11-28 04:12:00,43.0,31.3,29.97,ENE,68,1.0,3.0,63,0.00,,SKC,0.00,VWS V14.01,2013-11-28 11:12:00,
2013-11-28 04:17:00,42.0,30.7,29.97,ENE,68,1.0,3.0,64,0.00,,SKC,0.00,VWS V14.01,2013-11-28 11:17:00,
2013-11-28 04:22:00,43.0,31.3,29.97,ENE,68,2.0,2.0,63,0.00,,SKC,0.00,VWS V14.01,2013-11-28 11:22:00,
2013-11-28 04:28:00,43.0,30.9,29.97,ENE,68,2.0,3.0,62,0.00,,SKC,0.00,VWS V14.01,2013-11-28 11:28:00,
2013-11-28 04:34:00,43.0,30.5,29.97,ENE,68,3.0,4.0,61,0.00,,SKC,0.00,VWS V14.01,2013-11-28 11:34:00,
2013-11-28 04:40:00,43.0,30.5,29.98,ENE,68,3.0,4.0,61,0.00,,SKC,0.00,VWS V14.01,2013-11-28 11:40:00,
2013-11-28 04:45:00,43.0,30.5,29.98,ESE,112,4.0,4.0,61,0.00,,SKC,0.00,VWS V14.01,2013-11-28 11:45:00,
2013-11-28 04:50:00,43.0,30.9,29.98,East,90,4.0,5.0,62,0.00,,SKC,0.00,VWS V14.01,2013-11-28 11:50:00,
2013-11-28 04:55:00,42.0,30.3,29.98,East,90,4.0,5.0,63,0.00,,SKC,0.00,VWS V14.01,2013-11-28 11:55:00,
2013-11-28 05:00:00,43.0,30.9,29.98,East,90,6.0,6.0,62,0.00,,SKC,0.00,VWS V14.01,2013-11-28 12:00:00,
2013-11-28 05:06:00,44.0,30.6,29.98,ENE,68,2.0,2.0,59,0.00,,SKC,0.00,VWS V14.01,2013-11-28 12:06:00,
2013-11-28 05:11:00,44.0,31.0,29.98,ENE,68,3.0,3.0,60,0.00,,SKC,0.00,VWS V14.01,2013-11-28 12:11:00,
2013-11-28 05:16:00,43.0,30.1,29.98,NE,45,2.0,3.0,60,0.00,,SKC,0.00,VWS V14.01,2013-11-28 12:16:00,
2013-11-28 05:21:00,43.0,30.5,29.98,NE,45,1.0,3.0,61,0.00,,SKC,0.00,VWS V14.01,2013-11-28 12:21:00,
2013-11-28 05:26:00,43.0,30.9,29.98,NE,45,4.0,4.0,62,0.00,,SKC,0.00,VWS V14.01,2013-11-28 12:26:00,
2013-11-28 05:31:00,42.0,30.3,29.98,ENE,68,2.0,3.0,63,0.00,,SKC,0.00,VWS V14.01,2013-11-28 12:31:00,
2013-11-28 05:36:00,42.0,30.7,29.98,ENE,68,3.0,3.0,64,0.00,,SKC,0.00,VWS V14.01,2013-11-28 12:36:00,
2013-11-28 05:42:00,42.0,31.1,29.98,ENE,68,2.0,3.0,65,0.00,,SKC,0.00,VWS V14.01,2013-11-28 12:42:00,
2013-11-28 05:47:00,42.0,31.1,29.98,ENE,68,2.0,3.0,65,0.00,,SKC,0.00,VWS V14.01,2013-11-28 12:47:00,
2013-11-28 05:52:00,42.0,31.1,29.98,ENE,68,3.0,3.0,65,0.00,,SKC,0.00,VWS V14.01,2013-11-28 12:52:00,
2013-11-28 05:57:00,42.0,30.7,29.98,NNW,338,3.0,4.0,64,0.00,,SKC,0.00,VWS V14.01,2013-11-28 12:57:00,
2013-11-28 06:02:00,43.0,30.9,29.98,SE,135,3.0,3.0,62,0.00,,SKC,0.00,VWS V14.01,2013-11-28 13:02:00,
2013-11-28 06:07:00,42.0,30.7,29.98,ENE,68,3.0,5.0,64,0.00,,SKC,0.00,VWS V14.01,2013-11-28 13:07:00,
2013-11-28 06:12:00,41.0,30.5,29.99,East,90,3.0,3.0,66,0.00,,SKC,0.00,VWS V14.01,2013-11-28 13:12:00,
2013-11-28 06:17:00,41.0,30.5,29.98,ENE,68,2.0,2.0,66,0.00,,SKC,0.00,VWS V14.01,2013-11-28 13:17:00,
2013-11-28 06:22:00,41.0,30.5,29.99,East,90,5.0,5.0,66,0.00,,SKC,0.00,VWS V14.01,2013-11-28 13:22:00,
2013-11-28 06:27:00,41.0,30.9,29.99,East,90,5.0,5.0,67,0.00,,SKC,0.00,VWS V14.01,2013-11-28 13:27:00,
2013-11-28 06:32:00,40.0,30.7,29.99,ENE,68,4.0,4.0,69,0.00,,SKC,0.00,VWS V14.01,2013-11-28 13:32:00,
2013-11-28 06:37:00,40.0,30.7,29.99,ENE,68,2.0,2.0,69,0.00,,SKC,0.00,VWS V14.01,2013-11-28 13:37:00,
2013-11-28 06:42:00,40.0,30.7,29.99,East,90,1.0,2.0,69,0.00,,SKC,0.00,VWS V14.01,2013-11-28 13:42:00,
2013-11-28 06:47:00,40.0,31.0,29.99,ENE,68,2.0,2.0,70,0.00,,SKC,0.00,VWS V14.01,2013-11-28 13:47:00,
2013-11-28 06:52:00,40.0,31.0,29.99,ENE,68,3.0,3.0,70,0.00,,SKC,0.00,VWS V14.01,2013-11-28 13:52:00,
2013-11-28 06:57:00,40.0,31.4,29.99,NE,45,2.0,2.0,71,0.00,,SKC,0.00,VWS V14.01,2013-11-28 13:57:00,
2013-11-28 07:02:00,39.0,30.8,30.00,ENE,68,4.0,5.0,72,0.00,,SKC,0.00,VWS V14.01,2013-11-28 14:02:00,
2013-11-28 07:07:00,39.0,30.8,30.00,ENE,68,3.0,3.0,72,0.00,,SKC,0.00,VWS V14.01,2013-11-28 14:07:00,
2013-11-28 07:12:00,40.0,31.7,30.00,NE,45,2.0,3.0,72,0.00,,SKC,0.00,VWS V14.01,2013-11-28 14:12:00,
2013-11-28 07:17:00,40.0,31.7,30.00,East,90,3.0,3.0,72,0.00,,SKC,0.00,VWS V14.01,2013-11-28 14:17:00,
2013-11-28 07:22:00,40.0,31.7,30.00,ENE,68,3.0,4.0,72,0.00,,SKC,0.00,VWS V14.01,2013-11-28 14:22:00,
2013-11-28 07:27:00,40.0,31.4,30.00,East,90,6.0,6.0,71,0.00,,SKC,0.00,VWS V14.01,2013-11-28 14:27:00,
2013-11-28 07:32:00,40.0,31.4,30.00,East,90,3.0,3.0,71,0.00,,SKC,0.00,VWS V14.01,2013-11-28 14:32:00,
2013-11-28 07:37:00,40.0,31.4,30.01,NE,45,2.0,2.0,71,0.00,,SKC,0.00,VWS V14.01,2013-11-28 14:37:00,
2013-11-28 07:42:00,40.0,31.0,30.01,East,90,2.0,3.0,70,0.00,,SKC,0.00,VWS V14.01,2013-11-28 14:42:00,
2013-11-28 07:47:00,40.0,31.0,30.01,ESE,112,4.0,4.0,70,0.00,,SKC,0.00,VWS V14.01,2013-11-28 14:47:00,
2013-11-28 07:52:00,42.0,32.6,30.01,SE,135,3.0,4.0,69,0.00,,SKC,0.00,VWS V14.01,2013-11-28 14:52:00,
2013-11-28 07:57:00,43.0,32.4,30.01,ESE,112,3.0,3.0,66,0.00,,SKC,0.00,VWS V14.01,2013-11-28 14:57:00,
2013-11-28 08:02:00,44.0,32.6,30.01,ESE,112,2.0,3.0,64,0.00,,SKC,0.00,VWS V14.01,2013-11-28 15:02:00,
2013-11-28 08:07:00,44.0,31.8,30.02,East,90,5.0,5.0,62,0.00,,SKC,0.00,VWS V14.01,2013-11-28 15:07:00,
2013-11-28 08:12:00,44.0,31.4,30.01,ENE,68,3.0,3.0,61,0.00,,SKC,0.00,VWS V14.01,2013-11-28 15:12:00,
2013-11-28 08:17:00,45.0,32.4,30.01,ENE,68,2.0,3.0,61,0.00,,SKC,0.00,VWS V14.01,2013-11-28 15:17:00,
2013-11-28 08:22:00,45.0,31.5,30.01,ENE,68,4.0,5.0,59,0.00,,SKC,0.00,VWS V14.01,2013-11-28 15:22:00,
2013-11-28 08:27:00,46.0,31.6,30.02,ENE,68,3.0,4.0,57,0.00,,SKC,0.00,VWS V14.01,2013-11-28 15:27:00,
2013-11-28 08:32:00,47.0,32.6,30.02,ENE,68,3.0,4.0,57,0.00,,SKC,0.00,VWS V14.01,2013-11-28 15:32:00,
2013-11-28 08:37:00,47.0,32.1,30.02,ENE,68,3.0,3.0,56,0.00,,SKC,0.00,VWS V14.01,2013-11-28 15:37:00,
2013-11-28 08:42:00,48.0,32.6,30.02,ENE,68,3.0,4.0,55,0.00,,SKC,0.00,VWS V14.01,2013-11-28 15:42:00,
2013-11-28 08:47:00,49.0,32.6,30.02,ESE,112,4.0,5.0,53,0.00,,SKC,0.00,VWS V14.01,2013-11-28 15:47:00,
2013-11-28 08:52:00,49.0,32.2,30.03,ESE,112,3.0,3.0,52,0.00,,SKC,0.00,VWS V14.01,2013-11-28 15:52:00,
2013-11-28 08:57:00,49.0,31.7,30.02,East,90,5.0,5.0,51,0.00,,SKC,0.00,VWS V14.01,2013-11-28 15:57:00,
2013-11-28 09:02:00,50.0,32.6,30.02,ENE,68,4.0,4.0,51,0.00,,SKC,0.00,VWS V14.01,2013-11-28 16:02:00,
2013-11-28 09:07:00,51.0,33.5,30.02,ESE,112,5.0,5.0,51,0.00,,SKC,0.00,VWS V14.01,2013-11-28 16:07:00,
2013-11-28 09:12:00,51.0,32.5,30.02,East,90,3.0,5.0,49,0.00,,SKC,0.00,VWS V14.01,2013-11-28 16:12:00,
2013-11-28 09:17:00,52.0,32.9,30.02,ENE,68,5.0,5.0,48,0.00,,SKC,0.00,VWS V14.01,2013-11-28 16:17:00,
2013-11-28 09:22:00,53.0,33.3,30.02,ENE,68,5.0,6.0,47,0.00,,SKC,0.00,VWS V14.01,2013-11-28 16:22:00,
2013-11-28 09:27:00,53.0,32.2,30.02,SE,135,4.0,6.0,45,0.00,,SKC,0.00,VWS V14.01,2013-11-28 16:27:00,
2013-11-28 09:32:00,54.0,33.2,30.03,ENE,68,5.0,5.0,45,0.00,,SKC,0.00,VWS V14.01,2013-11-28 16:32:00,
2013-11-28 09:37:00,54.0,33.2,30.03,ESE,112,4.0,4.0,45,0.00,,SKC,0.00,VWS V14.01,2013-11-28 16:37:00,
2013-11-28 09:42:00,55.0,32.9,30.03,SE,135,3.0,4.0,43,0.00,,SKC,0.00,VWS V14.01,2013-11-28 16:42:00,
2013-11-28 09:47:00,56.0,33.8,30.03,ESE,112,4.0,4.0,43,0.00,,SKC,0.00,VWS V14.01,2013-11-28 16:47:00,
2013-11-28 09:52:00,57.0,33.5,30.03,East,90,5.0,6.0,41,0.00,,SKC,0.00,VWS V14.01,2013-11-28 16:52:00,
2013-11-28 09:57:00,57.0,33.5,30.03,ESE,112,3.0,5.0,41,0.00,,SKC,0.00,VWS V14.01,2013-11-28 16:57:00,
2013-11-28 10:02:00,58.0,33.8,30.03,SE,135,5.0,5.0,40,0.00,,SKC,0.00,VWS V14.01,2013-11-28 17:02:00,
2013-11-28 10:07:00,58.0,33.8,30.03,SSE,158,3.0,5.0,40,0.00,,SKC,0.00,VWS V14.01,2013-11-28 17:07:00,
2013-11-28 10:12:00,58.0,33.2,30.03,ESE,112,4.0,4.0,39,0.00,,SKC,0.00,VWS V14.01,2013-11-28 17:12:00,
2013-11-28 10:17:00,58.0,32.6,30.03,SE,135,2.0,3.0,38,0.00,,SKC,0.00,VWS V14.01,2013-11-28 17:17:00,
2013-11-28 10:22:00,59.0,33.5,30.03,ESE,112,3.0,4.0,38,0.00,,SKC,0.00,VWS V14.01,2013-11-28 17:22:00,
2013-11-28 10:27:00,59.0,32.8,30.03,ENE,68,3.0,3.0,37,0.00,,SKC,0.00,VWS V14.01,2013-11-28 17:27:00,
2013-11-28 10:32:00,60.0,33.7,30.03,SSE,158,3.0,4.0,37,0.00,,SKC,0.00,VWS V14.01,2013-11-28 17:32:00,
2013-11-28 10:37:00,60.0,33.0,30.03,ESE,112,3.0,3.0,36,0.00,,SKC,0.00,VWS V14.01,2013-11-28 17:37:00,
2013-11-28 10:42:00,61.0,33.9,30.03,SSE,158,4.0,4.0,36,0.00,,SKC,0.00,VWS V14.01,2013-11-28 17:42:00,
2013-11-28 10:47:00,61.0,33.2,30.03,SSE,158,3.0,4.0,35,0.00,,SKC,0.00,VWS V14.01,2013-11-28 17:47:00,
2013-11-28 10:52:00,61.0,32.5,30.03,SSE,158,5.0,6.0,34,0.00,,SKC,0.00,VWS V14.01,2013-11-28 17:52:00,
2013-11-28 10:57:00,62.0,33.3,30.03,ESE,112,5.0,5.0,34,0.00,,SKC,0.00,VWS V14.01,2013-11-28 17:57:00,
2013-11-28 11:02:00,62.0,32.6,30.03,ESE,112,2.0,3.0,33,0.00,,SKC,0.00,VWS V14.01,2013-11-28 18:02:00,
2013-11-28 11:07:00,62.0,31.8,30.02,SSE,158,1.0,1.0,32,0.00,,SKC,0.00,VWS V14.01,2013-11-28 18:07:00,
2013-11-28 11:12:00,63.0,32.7,30.02,SE,135,3.0,4.0,32,0.00,,SKC,0.00,VWS V14.01,2013-11-28 18:12:00,
2013-11-28 11:17:00,63.0,32.7,30.02,East,90,4.0,5.0,32,0.00,,SKC,0.00,VWS V14.01,2013-11-28 18:17:00,
2013-11-28 11:22:00,64.0,32.8,30.02,SSE,158,3.0,4.0,31,0.00,,SKC,0.00,VWS V14.01,2013-11-28 18:22:00,
2013-11-28 11:27:00,64.0,32.8,30.02,SSE,158,0.0,1.0,31,0.00,,SKC,0.00,VWS V14.01,2013-11-28 18:27:00,
2013-11-28 11:32:00,65.0,32.0,30.02,ESE,112,3.0,3.0,29,0.00,,SKC,0.00,VWS V14.01,2013-11-28 18:32:00,
2013-11-28 11:37:00,65.0,32.8,30.02,East,90,1.0,1.0,30,0.00,,SKC,0.00,VWS V14.01,2013-11-28 18:37:00,
2013-11-28 11:42:00,65.0,32.8,30.01,SSE,158,4.0,5.0,30,0.00,,SKC,0.00,VWS V14.01,2013-11-28 18:42:00,
2013-11-28 11:47:00,65.0,32.0,30.01,South,180,0.0,1.0,29,0.00,,SKC,0.00,VWS V14.01,2013-11-28 18:47:00,
2013-11-28 11:52:00,66.0,33.7,30.01,SSE,158,3.0,4.0,30,0.00,,SKC,0.00,VWS V14.01,2013-11-28 18:52:00,
2013-11-28 11:57:00,66.0,32.9,30.01,ENE,68,1.0,2.0,29,0.00,,SKC,0.00,VWS V14.01,2013-11-28 18:57:00,
2013-11-28 12:02:00,67.0,33.7,30.00,SSE,158,1.0,1.0,29,0.00,,SKC,0.00,VWS V14.01,2013-11-28 19:02:00,
2013-11-28 12:07:00,68.0,34.6,30.00,West,270,2.0,3.0,29,0.00,,SKC,0.00,VWS V14.01,2013-11-28 19:07:00,
2013-11-28 12:12:00,69.0,33.7,30.00,South,180,2.0,2.0,27,0.00,,SKC,0.00,VWS V14.01,2013-11-28 19:12:00,
2013-11-28 12:17:00,69.0,32.7,29.99,SW,225,2.0,3.0,26,0.00,,SKC,0.00,VWS V14.01,2013-11-28 19:17:00,
2013-11-28 12:22:00,69.0,32.7,29.99,South,180,1.0,1.0,26,0.00,,SKC,0.00,VWS V14.01,2013-11-28 19:22:00,
2013-11-28 12:27:00,70.0,33.6,29.99,SSE,158,3.0,3.0,26,0.00,,SKC,0.00,VWS V14.01,2013-11-28 19:27:00,
2013-11-28 12:32:00,70.0,33.6,29.98,SSE,158,4.0,5.0,26,0.00,,SKC,0.00,VWS V14.01,2013-11-28 19:32:00,
2013-11-28 12:37:00,70.0,33.6,29.98,South,180,3.0,4.0,26,0.00,,SKC,0.00,VWS V14.01,2013-11-28 19:37:00,
2013-11-28 12:42:00,71.0,34.4,29.98,SSW,202,3.0,4.0,26,0.00,,SKC,0.00,VWS V14.01,2013-11-28 19:42:00,
2013-11-28 12:47:00,72.0,34.3,29.98,SSE,158,3.0,3.0,25,0.00,,SKC,0.00,VWS V14.01,2013-11-28 19:47:00,
2013-11-28 12:52:00,72.0,34.3,29.98,SW,225,1.0,3.0,25,0.00,,SKC,0.00,VWS V14.01,2013-11-28 19:52:00,
2013-11-28 12:57:00,71.0,33.4,29.98,South,180,3.0,3.0,25,0.00,,SKC,0.00,VWS V14.01,2013-11-28 19:57:00,
2013-11-28 13:02:00,71.0,33.4,29.97,SW,225,8.0,8.0,25,0.00,,SKC,0.00,VWS V14.01,2013-11-28 20:02:00,
2013-11-28 13:07:00,72.0,35.3,29.98,SW,225,5.0,6.0,26,0.00,,SKC,0.00,VWS V14.01,2013-11-28 20:07:00,
2013-11-28 13:12:00,72.0,34.3,29.98,South,180,11.0,11.0,25,0.00,,SKC,0.00,VWS V14.01,2013-11-28 20:12:00,
2013-11-28 13:17:00,71.0,33.4,29.97,SSE,158,6.0,6.0,25,0.00,,SKC,0.00,VWS V14.01,2013-11-28 20:17:00,
2013-11-28 13:22:00,72.0,35.3,29.97,SW,225,3.0,5.0,26,0.00,,SKC,0.00,VWS V14.01,2013-11-28 20:22:00,
2013-11-28 13:27:00,72.0,35.3,29.97,SE,135,6.0,9.0,26,0.00,,SKC,0.00,VWS V14.01,2013-11-28 20:27:00,
2013-11-28 13:32:00,72.0,35.3,29.97,SE,135,11.0,11.0,26,0.00,,SKC,0.00,VWS V14.01,2013-11-28 20:32:00,
2013-11-28 13:37:00,71.0,34.4,29.97,SW,225,3.0,3.0,26,0.00,,SKC,0.00,VWS V14.01,2013-11-28 20:37:00,
2013-11-28 13:42:00,72.0,35.3,29.97,SSW,202,5.0,6.0,26,0.00,,SKC,0.00,VWS V14.01,2013-11-28 20:42:00,
2013-11-28 13:47:00,71.0,33.4,29.97,SSE,158,2.0,3.0,25,0.00,,SKC,0.00,VWS V14.01,2013-11-28 20:47:00,
2013-11-28 13:52:00,72.0,35.3,29.97,SSE,158,2.0,4.0,26,0.00,,SKC,0.00,VWS V14.01,2013-11-28 20:52:00,
2013-11-28 13:57:00,72.0,35.3,29.96,SSE,158,11.0,11.0,26,0.00,,SKC,0.00,VWS V14.01,2013-11-28 20:57:00,
2013-11-28 14:02:00,72.0,34.3,29.96,SSW,202,5.0,6.0,25,0.00,,SKC,0.00,VWS V14.01,2013-11-28 21:02:00,
2013-11-28 14:07:00,72.0,35.3,29.96,SW,225,5.0,5.0,26,0.00,,SKC,0.00,VWS V14.01,2013-11-28 21:07:00,
2013-11-28 14:12:00,72.0,34.3,29.96,SSE,158,9.0,11.0,25,0.00,,SKC,0.00,VWS V14.01,2013-11-28 21:12:00,
2013-11-28 14:17:00,72.0,36.2,29.96,SW,225,5.0,5.0,27,0.00,,SKC,0.00,VWS V14.01,2013-11-28 21:17:00,
2013-11-28 14:22:00,72.0,35.3,29.96,WSW,248,2.0,2.0,26,0.00,,SKC,0.00,VWS V14.01,2013-11-28 21:22:00,
2013-11-28 14:27:00,73.0,35.1,29.96,SSW,202,5.0,5.0,25,0.00,,SKC,0.00,VWS V14.01,2013-11-28 21:27:00,
2013-11-28 14:32:00,72.0,35.3,29.96,WSW,248,4.0,4.0,26,0.00,,SKC,0.00,VWS V14.01,2013-11-28 21:32:00,
2013-11-28 14:37:00,73.0,36.1,29.96,West,270,2.0,3.0,26,0.00,,SKC,0.00,VWS V14.01,2013-11-28 21:37:00,
2013-11-28 14:42:00,73.0,36.1,29.96,SSW,202,3.0,3.0,26,0.00,,SKC,0.00,VWS V14.01,2013-11-28 21:42:00,
2013-11-28 14:47:00,73.0,35.1,29.96,SW,225,2.0,3.0,25,0.00,,SKC,0.00,VWS V14.01,2013-11-28 21:47:00,
2013-11-28 14:52:00,73.0,35.1,29.96,SSW,202,2.0,3.0,25,0.00,,SKC,0.00,VWS V14.01,2013-11-28 21:52:00,
2013-11-28 14:57:00,72.0,35.3,29.96,WSW,248,4.0,5.0,26,0.00,,SKC,0.00,VWS V14.01,2013-11-28 21:57:00,
2013-11-28 15:02:00,72.0,35.3,29.95,WSW,248,5.0,6.0,26,0.00,,SKC,0.00,VWS V14.01,2013-11-28 22:02:00,
2013-11-28 15:07:00,71.0,34.4,29.96,West,270,4.0,5.0,26,0.00,,SKC,0.00,VWS V14.01,2013-11-28 22:07:00,
2013-11-28 15:12:00,71.0,35.4,29.96,WSW,248,5.0,5.0,27,0.00,,SKC,0.00,VWS V14.01,2013-11-28 22:12:00,
2013-11-28 15:17:00,71.0,34.4,29.96,South,180,5.0,6.0,26,0.00,,SKC,0.00,VWS V14.01,2013-11-28 22:17:00,
2013-11-28 15:22:00,72.0,35.3,29.96,WSW,248,6.0,6.0,26,0.00,,SKC,0.00,VWS V14.01,2013-11-28 22:22:00,
2013-11-28 15:27:00,72.0,36.2,29.96,West,270,3.0,3.0,27,0.00,,SKC,0.00,VWS V14.01,2013-11-28 22:27:00,
2013-11-28 15:32:00,72.0,36.2,29.96,West,270,5.0,5.0,27,0.00,,SKC,0.00,VWS V14.01,2013-11-28 22:32:00,
2013-11-28 15:37:00,72.0,35.3,29.96,SW,225,2.0,3.0,26,0.00,,SKC,0.00,VWS V14.01,2013-11-28 22:37:00,
2013-11-28 15:42:00,73.0,36.1,29.96,SW,225,4.0,4.0,26,0.00,,SKC,0.00,VWS V14.01,2013-11-28 22:42:00,
2013-11-28 15:47:00,72.0,35.3,29.96,WNW,292,4.0,5.0,26,0.00,,SKC,0.00,VWS V14.01,2013-11-28 22:47:00,
2013-11-28 15:52:00,72.0,36.2,29.96,SW,225,2.0,2.0,27,0.00,,SKC,0.00,VWS V14.01,2013-11-28 22:52:00,
2013-11-28 15:57:00,71.0,34.4,29.96,WSW,248,6.0,6.0,26,0.00,,SKC,0.00,VWS V14.01,2013-11-28 22:57:00,
2013-11-28 16:02:00,71.0,36.3,29.96,West,270,5.0,6.0,28,0.00,,SKC,0.00,VWS V14.01,2013-11-28 23:02:00,
2013-11-28 16:07:00,72.0,35.3,29.96,SSW,202,0.0,1.0,26,0.00,,SKC,0.00,VWS V14.01,2013-11-28 23:07:00,
2013-11-28 16:12:00,71.0,35.4,29.96,WSW,248,2.0,3.0,27,0.00,,SKC,0.00,VWS V14.01,2013-11-28 23:12:00,
2013-11-28 16:17:00,70.0,34.5,29.96,WNW,292,5.0,5.0,27,0.00,,SKC,0.00,VWS V14.01,2013-11-28 23:17:00,
2013-11-28 16:22:00,70.0,35.4,29.96,NW,315,4.0,5.0,28,0.00,,SKC,0.00,VWS V14.01,2013-11-28 23:22:00,
2013-11-28 16:27:00,70.0,36.3,29.96,WNW,292,3.0,3.0,29,0.00,,SKC,0.00,VWS V14.01,2013-11-28 23:27:00,
2013-11-28 16:32:00,69.0,35.5,29.96,WNW,292,5.0,5.0,29,0.00,,SKC,0.00,VWS V14.01,2013-11-28 23:32:00,
2013-11-28 16:37:00,69.0,36.3,29.96,WNW,292,4.0,4.0,30,0.00,,SKC,0.00,VWS V14.01,2013-11-28 23:37:00,
2013-11-28 16:42:00,69.0,35.5,29.97,NW,315,2.0,3.0,29,0.00,,SKC,0.00,VWS V14.01,2013-11-28 23:42:00,
2013-11-28 16:47:00,69.0,36.3,29.97,NW,315,3.0,3.0,30,0.00,,SKC,0.00,VWS V14.01,2013-11-28 23:47:00,
2013-11-28 16:52:00,68.0,35.4,29.96,West,270,4.0,5.0,30,0.00,,SKC,0.00,VWS V14.01,2013-11-28 23:52:00,
2013-11-28 16:57:00,68.0,36.3,29.96,NW,315,5.0,5.0,31,0.00,,SKC,0.00,VWS V14.01,2013-11-28 23:57:00,
2013-11-28 17:02:00,68.0,36.3,29.96,NW,315,3.0,4.0,31,0.00,,SKC,0.00,VWS V14.01,2013-11-29 00:02:00,
2013-11-28 17:07:00,67.0,35.4,29.96,WNW,292,3.0,3.0,31,0.00,,SKC,0.00,VWS V14.01,2013-11-29 00:07:00,
2013-11-28 17:12:00,67.0,36.2,29.97,WNW,292,5.0,5.0,32,0.00,,SKC,0.00,VWS V14.01,2013-11-29 00:12:00,
2013-11-28 17:17:00,67.0,37.0,29.97,WNW,292,4.0,5.0,33,0.00,,SKC,0.00,VWS V14.01,2013-11-29 00:17:00,
2013-11-28 17:22:00,66.0,36.1,29.97,NW,315,3.0,4.0,33,0.00,,SKC,0.00,VWS V14.01,2013-11-29 00:22:00,
2013-11-28 17:27:00,66.0,36.1,29.97,NW,315,3.0,3.0,33,0.00,,SKC,0.00,VWS V14.01,2013-11-29 00:27:00,
2013-11-28 17:32:00,66.0,36.8,29.97,NNW,338,2.0,3.0,34,0.00,,SKC,0.00,VWS V14.01,2013-11-29 00:32:00,
2013-11-28 17:37:00,66.0,36.1,29.97,NNW,338,1.0,1.0,33,0.00,,SKC,0.00,VWS V14.01,2013-11-29 00:37:00,
2013-11-28 17:42:00,65.0,37.4,29.97,ENE,68,1.0,1.0,36,0.00,,SKC,0.00,VWS V14.01,2013-11-29 00:42:00,
2013-11-28 17:47:00,64.0,37.2,29.97,NNE,22,3.0,3.0,37,0.00,,SKC,0.00,VWS V14.01,2013-11-29 00:47:00,
2013-11-28 17:52:00,63.0,36.3,29.97,NE,45,3.0,3.0,37,0.00,,SKC,0.00,VWS V14.01,2013-11-29 00:52:00,
2013-11-28 17:57:00,63.0,35.7,29.98,North,0,3.0,3.0,36,0.00,,SKC,0.00,VWS V14.01,2013-11-29 00:57:00,
2013-11-28 18:02:00,63.0,35.7,29.98,NNE,22,3.0,3.0,36,0.00,,SKC,0.00,VWS V14.01,2013-11-29 01:02:00,
2013-11-28 18:07:00,63.0,35.7,29.98,NNE,22,4.0,4.0,36,0.00,,SKC,0.00,VWS V14.01,2013-11-29 01:07:00,
2013-11-28 18:12:00,62.0,34.8,29.98,NNE,22,3.0,3.0,36,0.00,,SKC,0.00,VWS V14.01,2013-11-29 01:12:00,
2013-11-28 18:17:00,62.0,34.8,29.98,North,0,3.0,5.0,36,0.00,,SKC,0.00,VWS V14.01,2013-11-29 01:17:00,
2013-11-28 18:22:00,62.0,34.8,29.98,North,0,3.0,4.0,36,0.00,,SKC,0.00,VWS V14.01,2013-11-29 01:22:00,
2013-11-28 18:27:00,62.0,34.8,29.99,NE,45,4.0,6.0,36,0.00,,SKC,0.00,VWS V14.01,2013-11-29 01:27:00,
2013-11-28 18:32:00,61.0,33.9,29.99,NE,45,6.0,6.0,36,0.00,,SKC,0.00,VWS V14.01,2013-11-29 01:32:00,
2013-11-28 18:37:00,61.0,33.9,29.99,NNE,22,5.0,6.0,36,0.00,,SKC,0.00,VWS V14.01,2013-11-29 01:37:00,
2013-11-28 18:42:00,61.0,33.9,29.99,NE,45,3.0,3.0,36,0.00,,SKC,0.00,VWS V14.01,2013-11-29 01:42:00,
2013-11-28 18:47:00,61.0,34.6,29.99,NNE,22,1.0,1.0,37,0.00,,SKC,0.00,VWS V14.01,2013-11-29 01:47:00,
2013-11-28 18:52:00,60.0,33.7,29.99,North,0,3.0,3.0,37,0.00,,SKC,0.00,VWS V14.01,2013-11-29 01:52:00,
2013-11-28 18:57:00,60.0,33.7,29.99,NE,45,3.0,5.0,37,0.00,,SKC,0.00,VWS V14.01,2013-11-29 01:57:00,
2013-11-28 19:02:00,60.0,34.3,30.00,ENE,68,2.0,2.0,38,0.00,,SKC,0.00,VWS V14.01,2013-11-29 02:02:00,
2013-11-28 19:07:00,60.0,35.0,30.00,NE,45,1.0,1.0,39,0.00,,SKC,0.00,VWS V14.01,2013-11-29 02:07:00,
2013-11-28 19:12:00,59.0,34.7,30.00,ENE,68,1.0,2.0,40,0.00,,SKC,0.00,VWS V14.01,2013-11-29 02:12:00,
2013-11-28 19:17:00,58.0,34.5,30.00,ENE,68,1.0,1.0,41,0.00,,SKC,0.00,VWS V14.01,2013-11-29 02:17:00,
2013-11-28 19:22:00,58.0,35.1,30.00,ENE,68,2.0,2.0,42,0.00,,SKC,0.00,VWS V14.01,2013-11-29 02:22:00,
2013-11-28 19:27:00,58.0,35.7,30.00,NE,45,1.0,1.0,43,0.00,,SKC,0.00,VWS V14.01,2013-11-29 02:27:00,
2013-11-28 19:32:00,57.0,35.3,30.00,NE,45,1.0,1.0,44,0.00,,SKC,0.00,VWS V14.01,2013-11-29 02:32:00,
2013-11-28 19:37:00,57.0,35.3,30.01,ENE,68,1.0,1.0,44,0.00,,SKC,0.00,VWS V14.01,2013-11-29 02:37:00,
2013-11-28 19:42:00,57.0,35.9,30.01,NE,45,1.0,1.0,45,0.00,,SKC,0.00,VWS V14.01,2013-11-29 02:42:00,
2013-11-28 19:47:00,56.0,35.5,30.01,NE,45,1.0,2.0,46,0.00,,SKC,0.00,VWS V14.01,2013-11-29 02:47:00,
2013-11-28 19:52:00,56.0,35.5,30.01,NE,45,1.0,1.0,46,0.00,,SKC,0.00,VWS V14.01,2013-11-29 02:52:00,
2013-11-28 19:57:00,56.0,35.5,30.01,ESE,112,1.0,1.0,46,0.00,,SKC,0.00,VWS V14.01,2013-11-29 02:57:00,
2013-11-28 20:02:00,55.0,35.7,30.01,ENE,68,3.0,3.0,48,0.00,,SKC,0.00,VWS V14.01,2013-11-29 03:02:00,
2013-11-28 20:07:00,55.0,35.7,30.02,NNE,22,0.0,1.0,48,0.00,,SKC,0.00,VWS V14.01,2013-11-29 03:07:00,
2013-11-28 20:12:00,55.0,35.7,30.02,ENE,68,3.0,3.0,48,0.00,,SKC,0.00,VWS V14.01,2013-11-29 03:12:00,
2013-11-28 20:17:00,55.0,36.7,30.02,East,90,1.0,2.0,50,0.00,,SKC,0.00,VWS V14.01,2013-11-29 03:17:00,
2013-11-28 20:22:00,54.0,35.8,30.03,East,90,1.0,1.0,50,0.00,,SKC,0.00,VWS V14.01,2013-11-29 03:22:00,
2013-11-28 20:27:00,54.0,36.3,30.03,ENE,68,2.0,2.0,51,0.00,,SKC,0.00,VWS V14.01,2013-11-29 03:27:00,
2013-11-28 20:32:00,54.0,36.8,30.03,NE,45,2.0,2.0,52,0.00,,SKC,0.00,VWS V14.01,2013-11-29 03:32:00,
2013-11-28 20:37:00,53.0,35.9,30.03,ENE,68,2.0,3.0,52,0.00,,SKC,0.00,VWS V14.01,2013-11-29 03:37:00,
2013-11-28 20:42:00,53.0,36.3,30.03,NNE,22,3.0,3.0,53,0.00,,SKC,0.00,VWS V14.01,2013-11-29 03:42:00,
2013-11-28 20:47:00,53.0,36.3,30.03,NNE,22,1.0,2.0,53,0.00,,SKC,0.00,VWS V14.01,2013-11-29 03:47:00,
2013-11-28 20:52:00,53.0,36.3,30.04,ENE,68,3.0,3.0,53,0.00,,SKC,0.00,VWS V14.01,2013-11-29 03:52:00,
2013-11-28 20:57:00,53.0,36.3,30.03,NE,45,2.0,3.0,53,0.00,,SKC,0.00,VWS V14.01,2013-11-29 03:57:00,
2013-11-28 21:02:00,53.0,36.3,30.03,ENE,68,2.0,2.0,53,0.00,,SKC,0.00,VWS V14.01,2013-11-29 04:02:00,
2013-11-28 21:07:00,53.0,36.3,30.03,NE,45,3.0,3.0,53,0.00,,SKC,0.00,VWS V14.01,2013-11-29 04:07:00,
2013-11-28 21:12:00,53.0,35.9,30.03,NNE,22,3.0,4.0,52,0.00,,SKC,0.00,VWS V14.01,2013-11-29 04:12:00,
2013-11-28 21:17:00,53.0,36.3,30.03,ENE,68,4.0,5.0,53,0.00,,SKC,0.00,VWS V14.01,2013-11-29 04:17:00,
2013-11-28 21:22:00,53.0,36.3,30.03,ENE,68,2.0,3.0,53,0.00,,SKC,0.00,VWS V14.01,2013-11-29 04:22:00,
2013-11-28 21:27:00,53.0,36.3,30.03,NE,45,2.0,3.0,53,0.00,,SKC,0.00,VWS V14.01,2013-11-29 04:27:00,
2013-11-28 21:32:00,53.0,35.9,30.03,NNE,22,3.0,4.0,52,0.00,,SKC,0.00,VWS V14.01,2013-11-29 04:32:00,
2013-11-28 21:37:00,53.0,35.4,30.03,NNE,22,3.0,5.0,51,0.00,,SKC,0.00,VWS V14.01,2013-11-29 04:37:00,
2013-11-28 21:42:00,53.0,35.4,30.03,NE,45,2.0,3.0,51,0.00,,SKC,0.00,VWS V14.01,2013-11-29 04:42:00,
2013-11-28 21:47:00,53.0,35.4,30.04,ENE,68,2.0,2.0,51,0.00,,SKC,0.00,VWS V14.01,2013-11-29 04:47:00,
2013-11-28 21:52:00,53.0,35.4,30.04,ENE,68,1.0,2.0,51,0.00,,SKC,0.00,VWS V14.01,2013-11-29 04:52:00,
2013-11-28 21:57:00,53.0,35.9,30.04,NE,45,2.0,3.0,52,0.00,,SKC,0.00,VWS V14.01,2013-11-29 04:57:00,
2013-11-28 22:01:00,53.0,35.9,30.04,NE,45,1.0,2.0,52,0.00,,SKC,0.00,VWS V14.01,2013-11-29 05:01:00,
2013-11-28 22:02:00,53.0,35.9,30.04,ENE,68,2.0,2.0,52,0.00,,SKC,0.00,VWS V14.01,2013-11-29 05:02:00,
2013-11-28 22:03:00,53.0,35.9,30.04,ENE,68,2.0,2.0,52,0.00,,SKC,0.00,VWS V14.01,2013-11-29 05:03:00,
2013-11-28 22:04:00,52.0,34.9,30.04,NE,45,2.0,3.0,52,0.00,,SKC,0.00,VWS V14.01,2013-11-29 05:04:00,
2013-11-28 22:07:00,52.0,35.4,30.04,NE,45,2.0,3.0,53,0.00,,SKC,0.00,VWS V14.01,2013-11-29 05:07:00,
2013-11-28 22:09:00,53.0,35.9,30.04,NE,45,1.0,2.0,52,0.00,,SKC,0.00,VWS V14.01,2013-11-29 05:09:00,
2013-11-28 22:14:00,53.0,35.9,30.04,NE,45,2.0,3.0,52,0.00,,SKC,0.00,VWS V14.01,2013-11-29 05:14:00,
2013-11-28 22:19:00,53.0,35.9,30.04,NE,45,1.0,2.0,52,0.00,,SKC,0.00,VWS V14.01,2013-11-29 05:19:00,
2013-11-28 22:24:00,53.0,35.9,30.04,ENE,68,3.0,3.0,52,0.00,,SKC,0.00,VWS V14.01,2013-11-29 05:24:00,
2013-11-28 22:29:00,53.0,36.3,30.04,ESE,112,2.0,3.0,53,0.00,,SKC,0.00,VWS V14.01,2013-11-29 05:29:00,
2013-11-28 22:34:00,52.0,35.9,30.04,North,0,1.0,2.0,54,0.00,,SKC,0.00,VWS V14.01,2013-11-29 05:34:00,
2013-11-28 22:39:00,52.0,35.9,30.04,East,90,1.0,2.0,54,0.00,,SKC,0.00,VWS V14.01,2013-11-29 05:39:00,
2013-11-28 22:44:00,51.0,36.3,30.04,ENE,68,3.0,3.0,57,0.00,,SKC,0.00,VWS V14.01,2013-11-29 05:44:00,
2013-11-28 22:49:00,51.0,36.8,30.04,East,90,1.0,1.0,58,0.00,,SKC,0.00,VWS V14.01,2013-11-29 05:49:00,
2013-11-28 22:54:00,50.0,36.7,30.04,ENE,68,1.0,1.0,60,0.00,,SKC,0.00,VWS V14.01,2013-11-29 05:54:00,
2013-11-28 22:59:00,50.0,37.1,30.04,NE,45,3.0,3.0,61,0.00,,SKC,0.00,VWS V14.01,2013-11-29 05:59:00,
2013-11-28 23:04:00,50.0,37.1,30.04,ENE,68,3.0,3.0,61,0.00,,SKC,0.00,VWS V14.01,2013-11-29 06:04:00,
2013-11-28 23:09:00,49.0,36.6,30.04,ENE,68,2.0,2.0,62,0.00,,SKC,0.00,VWS V14.01,2013-11-29 06:09:00,
2013-11-28 23:14:00,49.0,36.6,30.04,NE,45,2.0,2.0,62,0.00,,SKC,0.00,VWS V14.01,2013-11-29 06:14:00,
2013-11-28 23:19:00,49.0,36.6,30.04,East,90,2.0,3.0,62,0.00,,SKC,0.00,VWS V14.01,2013-11-29 06:19:00,
2013-11-28 23:24:00,49.0,36.6,30.05,ENE,68,5.0,5.0,62,0.00,,SKC,0.00,VWS V14.01,2013-11-29 06:24:00,
2013-11-28 23:29:00,49.0,36.6,30.05,NE,45,2.0,2.0,62,0.00,,SKC,0.00,VWS V14.01,2013-11-29 06:29:00,
2013-11-28 23:34:00,49.0,36.6,30.05,NE,45,3.0,3.0,62,0.00,,SKC,0.00,VWS V14.01,2013-11-29 06:34:00,
2013-11-28 23:39:00,49.0,37.0,30.05,ENE,68,2.0,2.0,63,0.00,,SKC,0.00,VWS V14.01,2013-11-29 06:39:00,
2013-11-28 23:44:00,49.0,36.6,30.05,ENE,68,2.0,2.0,62,0.00,,SKC,0.00,VWS V14.01,2013-11-29 06:44:00,
2013-11-28 23:49:00,49.0,36.6,30.05,ENE,68,3.0,3.0,62,0.00,,SKC,0.00,VWS V14.01,2013-11-29 06:49:00,
2013-11-28 23:54:00,49.0,36.2,30.05,NE,45,3.0,3.0,61,0.00,,SKC,0.00,VWS V14.01,2013-11-29 06:54:00,
2013-11-28 23:59:00,49.0,36.6,30.06,East,90,3.0,3.0,62,0.00,,SKC,0.00,VWS V14.01,2013-11-29 06:59:00,